Time;durP1;ratioP1;P1;durP2;ratioP2;P2;SDS_P1;SDS_P2;PMS_P1;PMS_P2;Temp;Humidity;BMP_temperature;BMP_pressure;BME280_temperature;BME280_humidity;BME280_pressure;Samples;Min_cycle;Max_cycle;Signal;HPM_P1;HPM_P2
2022/09/05 00:04:10;;;;;;;13.98;9.27;;;;;;;18.84;54.50;100314.97;10304072;28;20043;-73
2022/09/05 00:09:29;;;;;;;22.70;10.77;;;;;;;18.90;56.27;100343.69;10304441;28;20038;-72
2022/09/05 00:14:38;;;;;;;16.80;9.38;;;;;;;18.72;55.76;100355.19;10303518;28;20043;-70
2022/09/05 00:20:27;;;;;;;16.60;9.93;;;;;;;18.12;56.25;100272.34;10303717;28;20109;-69
2022/09/05 00:25:49;;;;;;;16.25;9.13;;;;;;;18.58;56.30;100376.03;10302889;28;20511;-71
2022/09/05 00:31:01;;;;;;;14.50;9.55;;;;;;;18.57;56.42;100390.50;10303191;28;20060;-70
2022/09/05 00:36:36;;;;;;;21.08;9.55;;;;;;;18.15;56.00;100325.66;10301741;28;20058;-71
2022/09/05 00:41:39;;;;;;;13.02;9.13;;;;;;;17.91;56.24;100326.47;10297370;28;20507;-69
2022/09/05 00:46:49;;;;;;;15.40;9.43;;;;;;;18.21;56.38;100373.19;10297097;28;20132;-69
2022/09/05 00:52:08;;;;;;;19.67;9.55;;;;;;;18.10;57.13;100370.38;10296273;28;20097;-69
2022/09/05 00:57:43;;;;;;;18.75;9.65;;;;;;;17.98;56.67;100346.91;10296672;28;20046;-69
2022/09/05 01:03:11;;;;;;;14.07;9.07;;;;;;;18.18;57.53;100395.13;10296728;28;20058;-69
2022/09/05 01:08:33;;;;;;;14.30;8.52;;;;;;;18.09;57.54;100425.19;10295005;28;20381;-68
2022/09/05 01:13:56;;;;;;;13.63;8.25;;;;;;;18.00;57.41;100430.00;10296007;28;20125;-69
2022/09/05 01:19:04;;;;;;;14.40;7.83;;;;;;;17.51;57.77;100372.31;10296569;28;20693;-71
2022/09/05 01:24:26;;;;;;;12.65;7.90;;;;;;;17.89;57.77;100446.78;10296163;28;20128;-69
2022/09/05 01:30:11;;;;;;;12.05;7.78;;;;;;;16.96;57.47;100310.97;10296176;28;20034;-70
2022/09/05 01:35:27;;;;;;;13.50;6.57;;;;;;;17.51;57.28;100416.13;10245576;28;20058;-70
2022/09/05 01:40:46;;;;;;;15.50;7.75;;;;;;;17.32;57.75;100446.53;10294591;28;20054;-69
2022/09/05 01:45:51;;;;;;;9.27;6.75;;;;;;;17.24;57.62;100442.22;10294408;28;20046;-69
2022/09/05 01:51:12;;;;;;;13.57;7.22;;;;;;;17.13;57.77;100426.72;10293613;28;20035;-68
2022/09/05 01:56:23;;;;;;;17.77;7.38;;;;;;;16.49;58.08;100334.31;10294252;28;20487;-69
2022/09/05 02:01:30;;;;;;;12.48;7.97;;;;;;;17.08;58.00;100415.78;10293711;28;20492;-68
2022/09/05 02:06:40;;;;;;;13.90;7.32;;;;;;;16.89;58.26;100438.94;10293494;28;20057;-68
2022/09/05 02:11:50;;;;;;;11.77;7.68;;;;;;;16.78;58.43;100443.09;10293932;28;20070;-69
2022/09/05 02:16:54;;;;;;;16.90;7.82;;;;;;;16.54;58.43;100406.09;10293724;28;20061;-68
2022/09/05 02:22:09;;;;;;;30.13;7.90;;;;;;;16.80;58.37;100437.50;10293000;28;20046;-69
2022/09/05 02:27:35;;;;;;;14.18;7.97;;;;;;;16.69;58.82;100432.72;10293463;28;20077;-69
2022/09/05 02:32:36;;;;;;;14.60;8.30;;;;;;;16.57;58.23;100445.91;10292314;28;20157;-69
2022/09/05 02:37:47;;;;;;;24.65;8.48;;;;;;;16.57;58.15;100478.09;10292941;28;20141;-71
2022/09/05 02:42:57;;;;;;;22.48;8.63;;;;;;;16.42;58.17;100484.47;10291717;28;20041;-70
2022/09/05 02:48:21;;;;;;;12.48;8.25;;;;;;;16.14;58.85;100478.41;10292304;28;20133;-69
2022/09/05 02:53:22;;;;;;;22.02;8.68;;;;;;;15.23;59.01;100385.69;10292417;28;20031;-69
2022/09/05 02:58:41;;;;;;;18.02;9.30;;;;;;;16.07;59.04;100525.78;10292082;28;20043;-69
2022/09/05 03:03:50;;;;;;;15.65;8.85;;;;;;;16.11;59.67;100548.47;10291416;28;20093;-70
2022/09/05 03:09:10;;;;;;;36.38;9.07;;;;;;;15.97;59.45;100512.75;10292617;28;20128;-67
2022/09/05 03:14:49;;;;;;;11.13;8.57;;;;;;;16.13;59.39;100566.03;10290138;28;20467;-68
2022/09/05 03:20:25;;;;;;;14.13;9.07;;;;;;;16.07;59.50;100574.03;10291740;28;20043;-68
2022/09/05 03:25:57;;;;;;;12.68;8.63;;;;;;;16.01;59.19;100550.72;10287585;28;20047;-68
2022/09/05 03:31:30;;;;;;;13.90;9.45;;;;;;;16.14;58.73;100575.69;10288835;28;20411;-68
2022/09/05 03:36:43;;;;;;;20.47;9.83;;;;;;;16.13;59.12;100568.69;10268499;28;20090;-69
2022/09/05 03:42:10;;;;;;;29.33;10.05;;;;;;;16.05;59.42;100602.88;10291579;28;20141;-69
2022/09/05 03:47:43;;;;;;;31.25;9.77;;;;;;;16.00;59.96;100583.88;10290625;28;20140;-70
2022/09/05 03:53:05;;;;;;;15.83;9.63;;;;;;;15.94;59.52;100572.09;10255620;28;20065;-68
2022/09/05 03:58:45;;;;;;;28.95;10.50;;;;;;;16.05;59.50;100570.72;10274255;28;20109;-71
2022/09/05 04:04:04;;;;;;;22.58;9.90;;;;;;;15.53;59.55;100471.09;10271654;28;20054;-70
2022/09/05 04:09:17;;;;;;;16.33;9.70;;;;;;;15.76;59.54;100535.09;10290927;28;20453;-70
2022/09/05 04:14:26;;;;;;;18.65;10.38;;;;;;;15.40;59.83;100514.66;10294048;28;20042;-69
2022/09/05 04:19:42;;;;;;;18.33;10.68;;;;;;;15.51;60.37;100532.03;10296778;28;20058;-70
2022/09/05 04:25:20;;;;;;;19.80;11.57;;;;;;;15.75;60.70;100577.13;10297846;28;20049;-71
2022/09/05 04:30:46;;;;;;;22.95;11.88;;;;;;;15.65;61.02;100576.63;10290494;28;20055;-72
2022/09/05 04:35:56;;;;;;;22.35;11.82;;;;;;;15.81;60.04;100583.56;10297469;28;20066;-70
2022/09/05 04:41:02;;;;;;;30.77;13.07;;;;;;;15.79;60.74;100592.81;10296823;28;20150;-71
2022/09/05 04:46:18;;;;;;;25.60;13.02;;;;;;;15.51;60.61;100521.31;10296273;28;20046;-72
2022/09/05 04:52:13;;;;;;;26.30;12.65;;;;;;;15.97;60.72;100591.31;10296437;28;20043;-67
2022/09/05 04:57:23;;;;;;;18.73;12.90;;;;;;;15.80;60.56;100556.97;10250845;29;20054;-66
2022/09/05 05:02:38;;;;;;;21.10;13.82;;;;;;;16.00;60.84;100582.00;10287484;28;20050;-68
2022/09/05 05:07:54;;;;;;;21.27;13.10;;;;;;;15.53;60.94;100501.38;10295606;28;20062;-68
2022/09/05 05:13:01;;;;;;;25.40;13.27;;;;;;;16.02;60.23;100587.19;10295630;28;20508;-67
2022/09/05 05:18:12;;;;;;;23.40;13.05;;;;;;;15.98;60.93;100566.16;10296018;28;20049;-68
2022/09/05 05:23:16;;;;;;;27.50;13.77;;;;;;;16.14;60.49;100581.06;10294799;28;20047;-68
2022/09/05 05:28:46;;;;;;;23.02;12.73;;;;;;;16.27;60.22;100599.06;10295695;28;20142;-68
2022/09/05 05:33:50;;;;;;;19.60;13.13;;;;;;;16.17;59.76;100580.66;10295678;28;20462;-68
2022/09/05 05:39:14;;;;;;;23.47;13.70;;;;;;;16.35;60.19;100596.22;10294871;28;20565;-69
2022/09/05 05:44:19;;;;;;;;;;;;;;;16.56;58.47;100597.94;10294919;28;20046;-69
2022/09/05 05:49:26;;;;;;;17.58;13.23;;;;;;;15.89;59.49;100535.19;10294423;28;19913;-68
2022/09/05 05:54:49;;;;;;;22.10;13.35;;;;;;;16.42;59.38;100620.38;10292950;28;20043;-69
2022/09/05 06:00:16;;;;;;;21.15;13.50;;;;;;;16.43;59.24;100625.53;10294014;28;20074;-66
2022/09/05 06:05:58;;;;;;;20.52;13.63;;;;;;;16.41;59.08;100632.94;10294252;28;20074;-70
2022/09/05 06:11:36;;;;;;;19.50;13.23;;;;;;;16.52;59.15;100644.97;10294488;28;20407;-67
2022/09/05 06:17:16;;;;;;;17.83;12.55;;;;;;;16.59;58.45;100653.03;10292558;28;20133;-68
2022/09/05 06:22:34;;;;;;;34.15;13.35;;;;;;;16.75;57.95;100652.72;10293542;28;20042;-68
2022/09/05 06:28:00;;;;;;;19.70;12.95;;;;;;;16.93;57.31;100632.53;10293449;28;20042;-68
2022/09/05 06:33:31;;;;;;;23.23;13.38;;;;;;;17.11;56.31;100628.28;10291962;28;20062;-68
2022/09/05 06:38:42;;;;;;;22.88;12.30;;;;;;;17.30;55.68;100623.94;10292749;28;20074;-69
2022/09/05 06:44:04;;;;;;;14.65;11.13;;;;;;;17.52;55.14;100621.06;10292537;28;20042;-69
2022/09/05 06:49:31;;;;;;;23.58;11.10;;;;;;;17.82;53.77;100617.97;10292490;28;20070;-69
2022/09/05 06:54:53;;;;;;;16.02;9.27;;;;;;;18.02;53.44;100637.59;10291986;28;20109;-68
2022/09/05 07:00:00;;;;;;;15.05;9.27;;;;;;;18.40;51.92;100645.78;10291810;28;20046;-68
2022/09/05 07:05:09;;;;;;;14.85;9.77;;;;;;;18.64;51.13;100628.09;10291656;28;20037;-68
2022/09/05 07:10:27;;;;;;;14.30;8.70;;;;;;;18.48;50.45;100567.50;10292153;28;20129;-69
2022/09/05 07:15:54;;;;;;;16.67;8.63;;;;;;;18.65;49.67;100575.91;10291276;28;20046;-70
2022/09/05 07:21:00;;;;;;;13.00;8.70;;;;;;;18.73;50.69;100628.69;10291105;28;20039;-69
2022/09/05 07:26:02;;;;;;;14.20;8.20;;;;;;;18.70;50.50;100626.41;10291725;28;20034;-69
2022/09/05 07:31:09;;;;;;;18.15;8.77;;;;;;;18.77;50.02;100626.41;10291443;28;20601;-69
2022/09/05 07:36:19;;;;;;;13.35;8.07;;;;;;;18.88;50.32;100639.19;10291741;28;20117;-69
2022/09/05 07:41:25;;;;;;;10.70;7.35;;;;;;;18.71;49.93;100566.97;10291353;28;20074;-68
2022/09/05 07:46:31;;;;;;;9.55;7.38;;;;;;;18.93;48.60;100543.28;10292407;28;20047;-69
2022/09/05 07:51:39;;;;;;;10.75;7.43;;;;;;;19.80;47.42;100599.13;10298678;28;20042;-68
2022/09/05 07:56:47;;;;;;;16.98;7.78;;;;;;;20.23;46.73;100585.59;10299118;28;20094;-68
2022/09/05 08:01:52;;;;;;;13.23;8.25;;;;;;;20.61;46.13;100575.59;10298271;28;20419;-69
2022/09/05 08:06:56;;;;;;;13.77;7.50;;;;;;;20.42;44.77;100505.44;10298925;28;20483;-69
2022/09/05 08:12:02;;;;;;;22.42;7.72;;;;;;;21.01;45.20;100502.13;10297926;28;20039;-69
2022/09/05 08:17:07;;;;;;;11.27;7.00;;;;;;;21.69;43.68;100561.03;10297725;28;20406;-68
2022/09/05 08:22:14;;;;;;;9.52;6.15;;;;;;;22.08;42.79;100545.09;10298053;28;20403;-69
2022/09/05 08:27:28;;;;;;;11.45;7.28;;;;;;;22.28;42.32;100548.22;10297440;28;20499;-67
2022/09/05 08:32:59;;;;;;;14.77;7.18;;;;;;;22.29;41.41;100517.41;10297546;28;20521;-66
2022/09/05 08:38:01;;;;;;;12.80;6.97;;;;;;;22.31;42.27;100503.63;10297458;28;20097;-70
2022/09/05 08:43:23;;;;;;;13.27;7.38;;;;;;;22.64;41.10;100505.59;10295985;28;20454;-67
2022/09/05 08:48:44;;;;;;;22.33;7.05;;;;;;;22.82;40.49;100522.69;10296713;28;20121;-68
2022/09/05 08:54:00;;;;;;;13.60;6.47;;;;;;;22.72;40.61;100517.91;10295812;28;20387;-68
2022/09/05 08:59:29;;;;;;;45.03;8.45;;;;;;;22.49;40.43;100445.75;10296165;28;20411;-69
2022/09/05 09:04:55;;;;;;;14.13;6.80;;;;;;;22.88;40.17;100511.69;10296650;28;20498;-67
2022/09/05 09:10:07;;;;;;;12.90;6.22;;;;;;;22.49;40.82;100502.59;10296925;28;20067;-67
2022/09/05 09:15:46;;;;;;;16.30;6.07;;;;;;;22.68;40.08;100489.69;10296290;28;20383;-69
2022/09/05 09:20:48;;;;;;;16.42;6.50;;;;;;;22.74;40.22;100489.53;10279779;28;20051;-68
2022/09/05 09:26:15;;;;;;;12.00;5.55;;;;;;;22.74;39.33;100492.25;10296282;28;20046;-69
2022/09/05 09:31:40;;;;;;;9.35;6.30;;;;;;;22.72;39.68;100486.25;10295660;28;20035;-68
2022/09/05 09:37:02;;;;;;;14.23;5.82;;;;;;;22.68;39.31;100422.00;10295878;28;20141;-68
2022/09/05 09:42:09;;;;;;;14.77;6.85;;;;;;;23.11;39.59;100472.00;10295303;28;20078;-65
2022/09/05 09:47:13;;;;;;;27.00;6.93;;;;;;;23.13;40.02;100469.88;10294480;28;20415;-69
2022/09/05 09:52:36;;;;;;;22.05;6.25;;;;;;;23.44;38.39;100471.13;10295537;28;20051;-69
2022/09/05 09:57:56;;;;;;;11.47;5.63;;;;;;;23.60;37.98;100407.06;10294105;28;20047;-68
2022/09/05 10:03:25;;;;;;;10.20;5.53;;;;;;;23.50;37.04;100364.38;10293842;28;20039;-69
2022/09/05 10:09:02;;;;;;;8.75;4.90;;;;;;;23.96;37.77;100465.31;10294258;28;20411;-68
2022/09/05 10:14:34;;;;;;;8.02;4.68;;;;;;;23.75;37.46;100461.50;10293473;28;20050;-69
2022/09/05 10:20:06;;;;;;;9.63;4.68;;;;;;;23.73;37.84;100450.13;10293878;28;20098;-70
2022/09/05 10:25:28;;;;;;;19.52;4.75;;;;;;;23.47;38.02;100397.41;10294018;28;20487;-69
2022/09/05 10:30:49;;;;;;;11.07;5.15;;;;;;;23.95;37.78;100441.94;10292749;28;20562;-69
2022/09/05 10:35:55;;;;;;;8.15;5.28;;;;;;;24.11;36.73;100413.91;10293362;28;20069;-68
2022/09/05 10:41:05;;;;;;;10.82;4.78;;;;;;;24.20;35.69;100427.00;10292525;28;20047;-69
2022/09/05 10:46:25;;;;;;;15.57;5.30;;;;;;;23.91;36.61;100381.16;10292217;28;20039;-69
2022/09/05 10:51:44;;;;;;;8.02;5.38;;;;;;;23.90;36.38;100406.63;10293179;28;20072;-69
2022/09/05 10:56:51;;;;;;;8.95;5.10;;;;;;;23.54;36.00;100338.38;10292428;28;20506;-68
2022/09/05 11:02:18;;;;;;;12.50;5.40;;;;;;;24.12;36.27;100391.13;10291802;28;20443;-69
2022/09/05 11:07:35;;;;;;;7.15;5.90;;;;;;;23.97;35.96;100420.81;10291589;28;20042;-68
2022/09/05 11:12:58;;;;;;;10.10;6.32;;;;;;;23.95;36.33;100414.00;10292028;28;20437;-68
2022/09/05 11:18:09;;;;;;;13.93;6.70;;;;;;;24.00;36.03;100404.03;10291919;28;20185;-68
2022/09/05 11:23:19;;;;;;;12.65;6.35;;;;;;;23.78;36.12;100392.38;10290188;28;20065;-69
2022/09/05 11:28:32;;;;;;;18.25;7.10;;;;;;;23.26;37.02;100297.94;10292210;28;20038;-69
2022/09/05 11:33:54;;;;;;;15.38;7.68;;;;;;;23.78;37.25;100408.66;10291571;28;20062;-68
2022/09/05 11:39:33;;;;;;;21.90;7.78;;;;;;;23.60;37.61;100424.16;10291477;28;20043;-67
2022/09/05 11:44:55;;;;;;;10.80;7.95;;;;;;;23.45;37.25;100410.38;10289665;28;20575;-68
2022/09/05 11:50:34;;;;;;;13.60;7.23;;;;;;;23.65;37.78;100405.22;10291428;28;20051;-68
2022/09/05 11:55:56;;;;;;;10.02;7.55;;;;;;;23.51;38.00;100406.66;10290498;28;20182;-68
2022/09/05 12:01:30;;;;;;;16.42;7.63;;;;;;;23.65;37.02;100382.72;10291109;28;20057;-69
2022/09/05 12:06:56;;;;;;;11.25;7.88;;;;;;;23.52;37.27;100391.25;10287581;28;20470;-68
2022/09/05 12:12:34;;;;;;;11.10;7.03;;;;;;;23.45;37.61;100402.25;10278151;28;20046;-70
2022/09/05 12:18:01;;;;;;;12.07;6.60;;;;;;;23.26;38.07;100393.63;10281603;28;20039;-68
2022/09/05 12:23:24;;;;;;;12.68;7.18;;;;;;;22.97;37.93;100384.81;10276051;28;20055;-68
2022/09/05 12:28:31;;;;;;;9.43;6.80;;;;;;;22.96;38.19;100375.88;10248840;28;20047;-68
2022/09/05 12:33:33;;;;;;;15.57;7.07;;;;;;;23.09;37.94;100377.41;10259307;28;20110;-69
2022/09/05 12:38:38;;;;;;;24.27;8.10;;;;;;;22.63;37.80;100300.06;10262188;28;20035;-69
2022/09/05 12:44:10;;;;;;;11.50;7.07;;;;;;;22.70;38.35;100344.03;10286660;28;20039;-69
2022/09/05 12:49:29;;;;;;;19.23;7.50;;;;;;;22.49;38.88;100400.56;10267529;28;20055;-70
2022/09/05 12:54:53;;;;;;;18.88;7.28;;;;;;;22.29;39.00;100386.72;10273814;28;20109;-69
2022/09/05 13:00:08;;;;;;;15.48;7.28;;;;;;;21.91;38.82;100304.31;10295565;28;20042;-68
2022/09/05 13:05:15;;;;;;;35.05;8.68;;;;;;;22.33;39.11;100396.78;10295858;28;20050;-69
2022/09/05 13:10:21;;;;;;;10.57;6.50;;;;;;;22.12;39.23;100381.22;10296285;28;20273;-68
2022/09/05 13:15:37;;;;;;;14.18;7.13;;;;;;;22.27;40.08;100397.75;10295633;28;20089;-72
2022/09/05 13:21:04;;;;;;;15.75;6.47;;;;;;;22.02;39.35;100381.06;10295967;28;20050;-72
2022/09/05 13:26:25;;;;;;;24.67;7.50;;;;;;;21.75;39.52;100351.91;10296386;28;20543;-69
2022/09/05 13:31:40;;;;;;;23.83;7.32;;;;;;;21.98;39.97;100396.09;10295494;28;20043;-68
2022/09/05 13:37:05;;;;;;;34.45;8.40;;;;;;;21.90;39.94;100386.50;10295666;28;20058;-69
2022/09/05 13:42:17;;;;;;;11.73;7.00;;;;;;;21.75;39.98;100375.41;10294589;28;20078;-69
2022/09/05 13:47:56;;;;;;;11.93;6.68;;;;;;;21.50;39.92;100338.69;10293986;28;20447;-67
2022/09/05 13:53:36;;;;;;;21.10;6.35;;;;;;;21.52;40.22;100369.00;10294689;28;20577;-68
2022/09/05 13:58:44;;;;;;;15.25;6.38;;;;;;;21.53;40.99;100407.66;10288517;28;20050;-67
2022/09/05 14:04:06;;;;;;;18.27;5.57;;;;;;;21.36;40.37;100413.81;10294520;28;20047;-70
2022/09/05 14:09:25;;;;;;;20.08;5.63;;;;;;;21.29;41.01;100417.66;10291417;28;20192;-68
2022/09/05 14:14:34;;;;;;;16.20;6.03;;;;;;;21.30;40.77;100409.34;10292126;28;20510;-68
2022/09/05 14:25:15;;;;;;;18.83;5.70;;;;;;;21.08;41.23;100408.28;10293435;28;20081;-67
2022/09/05 14:30:38;;;;;;;37.78;7.60;;;;;;;21.19;41.67;100404.75;10292994;28;20117;-67
2022/09/05 14:35:49;;;;;;;46.17;8.00;;;;;;;21.03;41.81;100390.09;10293374;28;20145;-68
2022/09/05 14:41:27;;;;;;;13.05;6.68;;;;;;;21.11;41.84;100405.94;10293038;28;20133;-68
2022/09/05 14:46:37;;;;;;;13.85;5.43;;;;;;;20.53;41.56;100325.78;10292056;28;20046;-68
2022/09/05 14:51:38;;;;;;;12.05;4.45;;;;;;;20.47;41.53;100332.06;10293233;28;20042;-69
2022/09/05 14:57:08;;;;;;;25.08;8.70;;;;;;;20.87;41.53;100402.41;10290303;28;20035;-67
2022/09/05 15:02:29;;;;;;;25.73;13.20;;;;;;;20.36;42.04;100331.00;10290601;28;20058;-67
2022/09/05 15:07:34;;;;;;;32.33;16.40;;;;;;;20.73;42.11;100401.84;10290853;28;20065;-67
2022/09/05 15:12:45;;;;;;;34.58;11.15;;;;;;;20.66;42.45;100389.50;10293071;28;20061;-67
2022/09/05 15:17:50;;;;;;;14.60;6.78;;;;;;;20.18;42.07;100342.69;10290113;28;20038;-68
2022/09/05 15:22:52;;;;;;;29.42;14.95;;;;;;;20.55;42.19;100409.19;10289797;28;20038;-68
2022/09/05 15:27:53;;;;;;;23.90;11.13;;;;;;;20.44;42.38;100403.50;10291625;28;20045;-67
2022/09/05 15:33:20;;;;;;;44.70;19.90;;;;;;;20.47;42.98;100419.25;10290741;28;20114;-67
2022/09/05 15:38:31;;;;;;;29.60;7.28;;;;;;;20.42;42.31;100421.81;10291082;28;20054;-67
2022/09/05 15:43:38;;;;;;;25.02;13.27;;;;;;;20.32;42.50;100426.94;10291001;28;20078;-67
2022/09/05 15:48:40;;;;;;;30.15;18.27;;;;;;;19.97;42.75;100383.66;10290747;28;20045;-67
2022/09/05 15:53:41;;;;;;;45.15;14.30;;;;;;;20.22;43.13;100426.66;10289753;28;20454;-67
2022/09/05 15:58:48;;;;;;;38.08;11.45;;;;;;;19.86;43.64;100379.88;10290492;28;20071;-67
2022/09/05 16:03:49;;;;;;;37.72;13.90;;;;;;;19.98;43.48;100398.78;10288917;28;20088;-68
2022/09/05 16:08:55;;;;;;;42.17;11.73;;;;;;;19.72;44.69;100373.03;10266919;28;20166;-67
2022/09/05 16:14:48;;;;;;;20.33;8.48;;;;;;;20.14;43.90;100446.69;10297279;28;20047;-68
2022/09/05 16:19:53;;;;;;;13.95;5.03;;;;;;;19.85;43.88;100426.75;10276310;28;20149;-67
2022/09/05 16:25:01;;;;;;;118.88;52.28;;;;;;;19.78;44.34;100439.50;10277233;28;20559;-67
2022/09/05 16:30:04;;;;;;;22.90;11.05;;;;;;;19.81;43.99;100464.13;10291582;28;20045;-70
2022/09/05 16:35:16;;;;;;;15.65;7.07;;;;;;;19.46;44.82;100406.47;10297850;28;20143;-69
2022/09/05 16:40:33;;;;;;;11.27;4.93;;;;;;;19.77;45.01;100472.88;10297081;28;20039;-67
2022/09/05 16:46:03;;;;;;;13.80;4.22;;;;;;;19.73;44.81;100466.31;10297754;28;20142;-69
2022/09/05 16:51:08;;;;;;;14.63;3.70;;;;;;;19.36;44.73;100417.78;10298150;28;20129;-68
2022/09/05 16:56:15;;;;;;;12.18;4.07;;;;;;;19.64;44.80;100475.72;10290617;28;20414;-67
2022/09/05 17:01:30;;;;;;;11.65;3.42;;;;;;;19.63;44.46;100474.06;10294250;28;20045;-68
2022/09/05 17:06:49;;;;;;;7.47;3.25;;;;;;;19.70;44.78;100488.31;10294287;28;20046;-69
2022/09/05 17:11:55;;;;;;;11.18;3.40;;;;;;;19.60;44.71;100478.84;10292877;28;20039;-70
2022/09/05 17:17:00;;;;;;;8.50;3.30;;;;;;;19.62;45.03;100481.31;10295414;28;20046;-71
2022/09/05 17:22:24;;;;;;;12.80;5.10;;;;;;;19.66;46.75;100479.84;10293455;28;20470;-67
2022/09/05 17:27:28;;;;;;;19.05;8.05;;;;;;;19.50;48.51;100475.84;10293502;28;20054;-67
2022/09/05 17:32:37;;;;;;;;;;;;;;;19.60;48.30;100489.63;10294540;28;20078;-67
2022/09/05 17:38:09;;;;;;;26.95;10.65;;;;;;;19.41;51.55;100506.81;10278609;28;19926;-69
2022/09/05 17:43:39;;;;;;;16.27;8.65;;;;;;;19.27;50.39;100495.34;10275887;28;20403;-67
2022/09/05 17:48:45;;;;;;;19.83;10.10;;;;;;;19.15;53.02;100495.25;10254081;28;20055;-67
2022/09/05 17:54:29;;;;;;;21.90;11.40;;;;;;;19.10;54.38;100473.53;10253834;29;20051;-67
2022/09/05 17:59:30;;;;;;;14.55;10.70;;;;;;;18.60;53.46;100416.16;10251607;29;20419;-67
2022/09/05 18:04:52;;;;;;;18.55;10.88;;;;;;;18.95;56.38;100493.78;10254340;28;20501;-67
2022/09/05 18:10:07;;;;;;;18.90;11.10;;;;;;;18.90;56.54;100508.69;10254102;29;20062;-67
2022/09/05 18:15:24;;;;;;;16.38;10.25;;;;;;;18.83;55.12;100516.00;10288036;28;20467;-67
2022/09/05 18:20:53;;;;;;;19.17;11.05;;;;;;;18.83;57.95;100499.84;10292444;28;20418;-67
2022/09/05 18:26:18;;;;;;;18.42;11.70;;;;;;;18.86;58.34;100510.19;10293207;28;20055;-68
2022/09/05 18:31:38;;;;;;;20.75;12.77;;;;;;;18.84;58.12;100516.81;10288839;28;20471;-67
2022/09/05 18:36:46;;;;;;;24.17;13.07;;;;;;;18.80;57.46;100521.00;10293711;28;20066;-67
2022/09/05 18:41:49;;;;;;;14.93;10.93;;;;;;;18.73;57.01;100529.13;10291950;28;20046;-67
2022/09/05 18:47:00;;;;;;;17.48;11.20;;;;;;;18.67;58.73;100536.16;10292585;28;20109;-69
2022/09/05 18:52:42;;;;;;;27.95;13.85;;;;;;;18.80;58.89;100559.50;10291072;28;20043;-66
2022/09/05 18:57:50;;;;;;;24.75;13.85;;;;;;;18.74;59.68;100562.25;10287368;28;20074;-67
2022/09/05 19:02:56;;;;;;;25.38;13.00;;;;;;;18.60;61.28;100537.22;10291707;28;20070;-68
2022/09/05 19:08:02;;;;;;;22.38;12.30;;;;;;;18.46;61.67;100537.31;10292240;28;20254;-68
2022/09/05 19:13:09;;;;;;;19.15;12.75;;;;;;;18.23;64.50;100527.06;10292757;28;20066;-67
2022/09/05 19:18:16;;;;;;;24.13;13.30;;;;;;;18.12;66.22;100553.81;10291656;28;20042;-68
2022/09/05 19:23:23;;;;;;;22.98;11.90;;;;;;;18.13;66.26;100550.91;10291741;28;20043;-67
2022/09/05 19:28:27;;;;;;;28.60;14.40;;;;;;;17.50;66.26;100483.44;10284133;28;20038;-67
2022/09/05 19:33:31;;;;;;;24.75;15.25;;;;;;;17.88;69.33;100545.41;10286319;28;20055;-67
2022/09/05 19:38:40;;;;;;;24.23;13.27;;;;;;;17.65;70.85;100528.88;10291040;28;20070;-67
2022/09/05 19:43:56;;;;;;;22.60;13.27;;;;;;;17.71;74.05;100550.38;10293598;28;20042;-67
2022/09/05 19:49:05;;;;;;;23.50;13.90;;;;;;;17.23;74.73;100488.03;10299817;28;20073;-67
2022/09/05 19:54:06;;;;;;;26.42;14.00;;;;;;;17.49;72.77;100517.56;10298853;28;20491;-67
2022/09/05 19:59:25;;;;;;;27.63;13.75;;;;;;;17.60;76.60;100537.59;10297851;28;20396;-67
2022/09/05 20:04:32;;;;;;;20.92;13.82;;;;;;;17.41;76.04;100533.06;10298933;28;20129;-66
2022/09/05 20:09:41;;;;;;;32.35;14.00;;;;;;;17.28;80.40;100518.59;10298077;28;20042;-66
2022/09/05 20:14:42;;;;;;;33.85;14.18;;;;;;;17.22;76.97;100514.06;10298478;28;20537;-66
2022/09/05 20:19:44;;;;;;;27.02;14.15;;;;;;;17.21;78.52;100519.66;10297706;28;20038;-66
2022/09/05 20:24:47;;;;;;;19.10;13.15;;;;;;;16.77;80.31;100451.31;10298473;28;20049;-69
2022/09/05 20:29:51;;;;;;;19.75;12.38;;;;;;;17.17;79.62;100524.63;10296918;28;20447;-66
2022/09/05 20:34:52;;;;;;;21.25;13.20;;;;;;;17.11;79.13;100530.78;10296605;28;20102;-66
2022/09/05 20:39:53;;;;;;;23.05;12.70;;;;;;;17.02;78.52;100513.25;10297579;28;20043;-66
2022/09/05 20:44:59;;;;;;;21.95;13.00;;;;;;;16.75;78.81;100482.84;10297519;28;20042;-66
2022/09/05 20:50:11;;;;;;;21.75;13.35;;;;;;;16.87;80.10;100500.03;10295706;28;20411;-69
2022/09/05 20:55:32;;;;;;;17.23;13.00;;;;;;;17.00;82.41;100526.06;10296352;28;20526;-66
2022/09/05 21:00:35;;;;;;;17.98;12.20;;;;;;;16.34;79.49;100431.03;10296549;28;20043;-70
2022/09/05 21:05:40;;;;;;;19.15;13.30;;;;;;;16.79;80.49;100510.97;10297129;28;20042;-66
2022/09/05 21:10:53;;;;;;;19.60;12.75;;;;;;;16.19;85.63;100433.06;10296517;28;20097;-66
2022/09/05 21:15:55;;;;;;;21.17;12.80;;;;;;;16.60;82.63;100513.38;10295191;28;20101;-66
2022/09/05 21:21:01;;;;;;;17.17;12.25;;;;;;;16.69;85.85;100524.72;10296511;28;20475;-66
2022/09/05 21:26:05;;;;;;;15.27;12.90;;;;;;;16.64;84.21;100517.31;10294383;28;20419;-66
2022/09/05 21:31:08;;;;;;;17.83;12.10;;;;;;;16.59;84.82;100505.53;10295823;28;20045;-67
2022/09/05 21:36:10;;;;;;;17.30;11.88;;;;;;;16.57;83.57;100502.22;10296391;28;20066;-66
2022/09/05 21:41:15;;;;;;;14.63;11.88;;;;;;;16.60;85.46;100501.81;10295467;28;20414;-66
2022/09/05 21:46:15;;;;;;;20.45;12.45;;;;;;;16.58;83.48;100495.84;10295072;28;20514;-66
2022/09/05 21:51:24;;;;;;;18.77;12.57;;;;;;;16.38;84.06;100490.44;10295048;28;20047;-66
2022/09/05 21:56:27;;;;;;;19.13;12.45;;;;;;;16.14;84.90;100460.47;10294946;28;20048;-67
2022/09/05 22:01:29;;;;;;;27.92;14.50;;;;;;;16.46;84.93;100508.19;10293638;28;20038;-66
2022/09/05 22:06:30;;;;;;;23.83;15.43;;;;;;;16.49;85.58;100516.66;10294904;28;20117;-66
2022/09/05 22:11:31;;;;;;;19.83;13.98;;;;;;;16.44;85.60;100519.94;10293093;28;20039;-66
2022/09/05 22:16:32;;;;;;;18.58;13.52;;;;;;;16.04;85.99;100465.38;10293493;28;20054;-67
2022/09/05 22:21:38;;;;;;;18.20;12.38;;;;;;;16.36;nan;100535.38;10293644;28;20154;-66
2022/09/05 22:26:44;;;;;;;17.25;12.68;;;;;;;16.25;88.85;100507.31;10292973;28;20054;-66
2022/09/05 22:31:46;;;;;;;18.42;13.35;;;;;;;16.32;87.04;100508.16;10294010;28;20519;-66
2022/09/05 22:36:47;;;;;;;17.08;12.63;;;;;;;16.27;86.32;100499.88;10293539;28;20085;-67
2022/09/05 22:41:48;;;;;;;16.05;12.43;;;;;;;15.97;86.37;100465.38;10293231;28;20173;-67
2022/09/05 22:46:51;;;;;;;16.23;12.45;;;;;;;16.01;87.47;100479.19;10292026;28;20626;-66
2022/09/05 22:51:52;;;;;;;22.05;12.23;;;;;;;16.39;85.51;100548.38;10293390;28;20110;-67
2022/09/05 22:56:53;;;;;;;21.70;13.00;;;;;;;16.40;86.10;100540.16;10290878;28;20129;-67
2022/09/05 23:01:53;;;;;;;20.13;12.18;;;;;;;16.46;86.50;100546.56;10292372;28;20046;-67
2022/09/05 23:06:54;;;;;;;16.63;12.50;;;;;;;16.17;85.77;100491.41;10291692;28;20128;-67
2022/09/05 23:11:55;;;;;;;22.70;12.15;;;;;;;15.93;85.55;100456.06;10292474;28;20098;-67
2022/09/05 23:16:56;;;;;;;20.35;12.85;;;;;;;16.00;85.86;100477.50;10291471;28;20038;-67
2022/09/05 23:21:57;;;;;;;16.10;12.18;;;;;;;16.32;86.67;100540.31;10291601;28;20206;-67
2022/09/05 23:26:58;;;;;;;17.45;11.95;;;;;;;15.98;87.33;100496.47;10291860;28;20047;-67
2022/09/05 23:31:59;;;;;;;22.63;12.88;;;;;;;16.28;86.85;100541.75;10291677;28;20039;-67
2022/09/05 23:36:59;;;;;;;17.50;12.60;;;;;;;16.33;87.27;100550.03;10289691;28;20499;-67
2022/09/05 23:42:00;;;;;;;16.40;12.55;;;;;;;16.31;87.52;100545.91;10289834;28;20520;-67
2022/09/05 23:47:01;;;;;;;18.15;12.95;;;;;;;16.43;87.83;100555.84;10291353;28;20043;-67
2022/09/05 23:52:02;;;;;;;15.18;11.88;;;;;;;16.47;87.69;100558.94;10291651;28;20035;-67